sensor_id;sensor_type;location;lat;lon;timestamp;noise_LAeq;noise_LA_min;noise_LA_max;noise_LA01;noise_LA95
50333;Laerm;36239;48.132;-1.210;2024-01-10T00:01:20;38.26;32.35;58.30;;
50333;Laerm;36239;48.132;-1.210;2024-01-10T00:03:46;38.14;33.44;54.76;;
50333;Laerm;36239;48.132;-1.210;2024-01-10T00:06:12;39.58;34.31;58.52;;
50333;Laerm;36239;48.132;-1.210;2024-01-10T00:08:38;37.96;32.93;47.96;;
50333;Laerm;36239;48.132;-1.210;2024-01-10T00:11:04;37.77;33.44;48.00;;
50333;Laerm;36239;48.132;-1.210;2024-01-10T00:13:31;37.52;33.44;48.90;;
50333;Laerm;36239;48.132;-1.210;2024-01-10T00:15:57;37.75;33.44;44.03;;
50333;Laerm;36239;48.132;-1.210;2024-01-10T00:18:24;42.91;33.44;75.20;;
50333;Laerm;36239;48.132;-1.210;2024-01-10T00:20:51;38.19;33.44;53.76;;
50333;Laerm;36239;48.132;-1.210;2024-01-10T00:23:20;38.29;32.93;58.26;;
50333;Laerm;36239;48.132;-1.210;2024-01-10T00:25:46;37.64;33.44;41.82;;
50333;Laerm;36239;48.132;-1.210;2024-01-10T00:28:12;38.00;33.44;50.74;;
50333;Laerm;36239;48.132;-1.210;2024-01-10T00:30:38;37.75;32.35;50.99;;
50333;Laerm;36239;48.132;-1.210;2024-01-10T00:33:05;37.52;33.44;43.34;;
50333;Laerm;36239;48.132;-1.210;2024-01-10T00:35:31;37.54;32.93;44.54;;
50333;Laerm;36239;48.132;-1.210;2024-01-10T00:37:57;42.04;32.35;65.98;;
50333;Laerm;36239;48.132;-1.210;2024-01-10T00:40:23;39.75;33.44;62.74;;
50333;Laerm;36239;48.132;-1.210;2024-01-10T00:42:49;41.18;32.93;63.84;;
50333;Laerm;36239;48.132;-1.210;2024-01-10T00:45:15;40.07;33.90;65.89;;
50333;Laerm;36239;48.132;-1.210;2024-01-10T00:47:42;42.24;33.44;63.63;;
50333;Laerm;36239;48.132;-1.210;2024-01-10T00:50:08;37.81;33.44;43.05;;
50333;Laerm;36239;48.132;-1.210;2024-01-10T00:52:34;37.91;33.44;50.62;;
50333;Laerm;36239;48.132;-1.210;2024-01-10T00:55:00;37.73;32.58;46.38;;
50333;Laerm;36239;48.132;-1.210;2024-01-10T00:57:26;37.74;33.44;53.13;;
50333;Laerm;36239;48.132;-1.210;2024-01-10T00:59:52;49.38;33.44;75.53;;
50333;Laerm;36239;48.132;-1.210;2024-01-10T01:02:18;41.52;32.93;64.31;;
50333;Laerm;36239;48.132;-1.210;2024-01-10T01:04:44;42.09;32.93;70.48;;
50333;Laerm;36239;48.132;-1.210;2024-01-10T01:07:10;42.62;33.44;69.18;;
50333;Laerm;36239;48.132;-1.210;2024-01-10T01:09:36;52.61;32.93;77.12;;
50333;Laerm;36239;48.132;-1.210;2024-01-10T01:12:02;55.32;32.93;81.84;;
50333;Laerm;36239;48.132;-1.210;2024-01-10T01:14:28;40.51;31.68;62.39;;
50333;Laerm;36239;48.132;-1.210;2024-01-10T01:16:54;46.72;33.44;74.88;;
50333;Laerm;36239;48.132;-1.210;2024-01-10T01:19:20;41.57;32.35;65.98;;
50333;Laerm;36239;48.132;-1.210;2024-01-10T01:21:46;37.96;33.44;45.69;;
50333;Laerm;36239;48.132;-1.210;2024-01-10T01:24:12;38.10;32.35;47.72;;
50333;Laerm;36239;48.132;-1.210;2024-01-10T01:26:38;51.35;32.35;72.54;;
50333;Laerm;36239;48.132;-1.210;2024-01-10T01:29:04;48.31;33.44;74.83;;
50333;Laerm;36239;48.132;-1.210;2024-01-10T01:31:31;42.59;32.93;67.32;;
50333;Laerm;36239;48.132;-1.210;2024-01-10T01:33:57;38.03;32.93;51.83;;
50333;Laerm;36239;48.132;-1.210;2024-01-10T01:36:23;38.17;33.44;52.20;;
50333;Laerm;36239;48.132;-1.210;2024-01-10T01:38:49;40.02;32.93;59.12;;
50333;Laerm;36239;48.132;-1.210;2024-01-10T01:41:15;38.28;32.93;57.92;;
50333;Laerm;36239;48.132;-1.210;2024-01-10T01:43:42;41.35;32.93;63.36;;
50333;Laerm;36239;48.132;-1.210;2024-01-10T01:46:08;42.62;33.44;68.39;;
50333;Laerm;36239;48.132;-1.210;2024-01-10T01:48:34;40.64;33.44;64.77;;
50333;Laerm;36239;48.132;-1.210;2024-01-10T01:51:02;39.46;32.93;58.54;;
50333;Laerm;36239;48.132;-1.210;2024-01-10T01:53:30;38.21;32.93;52.01;;
50333;Laerm;36239;48.132;-1.210;2024-01-10T01:55:56;39.97;33.90;56.70;;
50333;Laerm;36239;48.132;-1.210;2024-01-10T01:58:22;40.94;33.44;62.61;;
50333;Laerm;36239;48.132;-1.210;2024-01-10T02:00:49;40.48;32.93;66.96;;
50333;Laerm;36239;48.132;-1.210;2024-01-10T02:03:15;37.81;31.68;48.81;;
50333;Laerm;36239;48.132;-1.210;2024-01-10T02:05:42;43.49;33.44;70.26;;
50333;Laerm;36239;48.132;-1.210;2024-01-10T02:08:08;44.73;33.44;71.28;;
50333;Laerm;36239;48.132;-1.210;2024-01-10T02:10:34;38.56;33.44;61.62;;
50333;Laerm;36239;48.132;-1.210;2024-01-10T02:13:00;40.36;33.44;62.03;;
50333;Laerm;36239;48.132;-1.210;2024-01-10T02:15:27;38.49;32.93;60.14;;
50333;Laerm;36239;48.132;-1.210;2024-01-10T02:17:53;56.55;33.90;81.88;;
50333;Laerm;36239;48.132;-1.210;2024-01-10T02:20:19;58.38;32.93;83.03;;
50333;Laerm;36239;48.132;-1.210;2024-01-10T02:22:46;48.66;33.90;71.86;;
50333;Laerm;36239;48.132;-1.210;2024-01-10T02:25:13;48.89;33.44;71.87;;
50333;Laerm;36239;48.132;-1.210;2024-01-10T02:27:40;44.05;32.58;66.98;;
50333;Laerm;36239;48.132;-1.210;2024-01-10T02:30:06;58.15;33.44;83.93;;
50333;Laerm;36239;48.132;-1.210;2024-01-10T02:32:33;48.49;33.44;71.29;;
50333;Laerm;36239;48.132;-1.210;2024-01-10T02:34:59;40.45;33.09;63.50;;
50333;Laerm;36239;48.132;-1.210;2024-01-10T02:37:25;37.98;33.55;48.60;;
50333;Laerm;36239;48.132;-1.210;2024-01-10T02:39:51;38.79;32.35;62.99;;
50333;Laerm;36239;48.132;-1.210;2024-01-10T02:42:17;38.23;33.90;49.51;;
50333;Laerm;36239;48.132;-1.210;2024-01-10T02:44:43;49.63;33.44;78.52;;
50333;Laerm;36239;48.132;-1.210;2024-01-10T02:47:10;62.19;32.93;83.16;;
50333;Laerm;36239;48.132;-1.210;2024-01-10T02:49:37;43.60;32.93;67.97;;
50333;Laerm;36239;48.132;-1.210;2024-01-10T02:52:03;49.35;32.93;74.45;;
50333;Laerm;36239;48.132;-1.210;2024-01-10T02:54:29;44.43;33.90;65.82;;
50333;Laerm;36239;48.132;-1.210;2024-01-10T02:56:55;38.42;34.31;53.76;;
50333;Laerm;36239;48.132;-1.210;2024-01-10T02:59:21;37.76;32.93;48.13;;
50333;Laerm;36239;48.132;-1.210;2024-01-10T03:01:47;43.60;33.44;67.35;;
50333;Laerm;36239;48.132;-1.210;2024-01-10T03:04:13;41.36;32.93;65.02;;
50333;Laerm;36239;48.132;-1.210;2024-01-10T03:06:39;38.76;32.35;58.25;;
50333;Laerm;36239;48.132;-1.210;2024-01-10T03:09:06;47.28;33.44;71.22;;
50333;Laerm;36239;48.132;-1.210;2024-01-10T03:11:32;49.93;33.90;71.35;;
50333;Laerm;36239;48.132;-1.210;2024-01-10T03:14:09;47.39;32.58;67.24;;
50333;Laerm;36239;48.132;-1.210;2024-01-10T03:16:35;53.79;33.90;80.71;;
50333;Laerm;36239;48.132;-1.210;2024-01-10T03:19:01;50.72;33.90;79.98;;
50333;Laerm;36239;48.132;-1.210;2024-01-10T03:21:27;43.37;32.93;67.93;;
50333;Laerm;36239;48.132;-1.210;2024-01-10T03:23:56;62.20;35.04;87.23;;
50333;Laerm;36239;48.132;-1.210;2024-01-10T03:26:23;58.57;34.69;83.80;;
50333;Laerm;36239;48.132;-1.210;2024-01-10T03:28:49;48.86;33.44;75.72;;
50333;Laerm;36239;48.132;-1.210;2024-01-10T03:31:16;40.64;34.69;59.98;;
50333;Laerm;36239;48.132;-1.210;2024-01-10T03:33:42;39.19;32.93;54.72;;
50333;Laerm;36239;48.132;-1.210;2024-01-10T03:36:10;60.14;36.20;88.94;;
50333;Laerm;36239;48.132;-1.210;2024-01-10T03:38:36;50.77;35.36;72.11;;
50333;Laerm;36239;48.132;-1.210;2024-01-10T03:41:02;49.45;34.31;76.31;;
50333;Laerm;36239;48.132;-1.210;2024-01-10T03:43:28;38.59;32.93;56.75;;
50333;Laerm;36239;48.132;-1.210;2024-01-10T03:45:54;50.53;34.31;78.94;;
50333;Laerm;36239;48.132;-1.210;2024-01-10T03:48:20;38.71;34.31;52.83;;
50333;Laerm;36239;48.132;-1.210;2024-01-10T03:50:46;44.77;33.90;68.15;;
50333;Laerm;36239;48.132;-1.210;2024-01-10T03:53:12;49.90;33.44;73.80;;
50333;Laerm;36239;48.132;-1.210;2024-01-10T03:55:38;38.73;33.90;55.68;;
50333;Laerm;36239;48.132;-1.210;2024-01-10T03:58:05;53.83;33.44;82.92;;
50333;Laerm;36239;48.132;-1.210;2024-01-10T04:00:31;38.12;32.93;52.11;;
50333;Laerm;36239;48.132;-1.210;2024-01-10T04:02:57;37.64;32.93;46.20;;
50333;Laerm;36239;48.132;-1.210;2024-01-10T04:05:23;39.32;34.31;57.70;;
50333;Laerm;36239;48.132;-1.210;2024-01-10T04:07:51;41.10;33.44;62.67;;
50333;Laerm;36239;48.132;-1.210;2024-01-10T04:10:17;44.20;34.31;67.30;;
50333;Laerm;36239;48.132;-1.210;2024-01-10T04:12:44;38.11;33.90;43.19;;
50333;Laerm;36239;48.132;-1.210;2024-01-10T04:15:10;51.17;33.44;73.27;;
50333;Laerm;36239;48.132;-1.210;2024-01-10T04:17:36;43.69;33.90;64.64;;
50333;Laerm;36239;48.132;-1.210;2024-01-10T04:20:02;42.29;34.31;70.81;;
50333;Laerm;36239;48.132;-1.210;2024-01-10T04:22:29;42.59;33.90;64.17;;
50333;Laerm;36239;48.132;-1.210;2024-01-10T04:24:58;51.36;33.44;76.95;;
50333;Laerm;36239;48.132;-1.210;2024-01-10T04:27:24;52.16;36.69;71.15;;
50333;Laerm;36239;48.132;-1.210;2024-01-10T04:29:50;48.85;35.36;68.35;;
50333;Laerm;36239;48.132;-1.210;2024-01-10T04:32:16;39.34;33.44;45.57;;
50333;Laerm;36239;48.132;-1.210;2024-01-10T04:34:42;39.92;33.90;56.98;;
50333;Laerm;36239;48.132;-1.210;2024-01-10T04:37:08;51.84;35.66;77.13;;
50333;Laerm;36239;48.132;-1.210;2024-01-10T04:39:35;44.33;33.90;66.75;;
50333;Laerm;36239;48.132;-1.210;2024-01-10T04:42:01;39.43;33.44;61.32;;
50333;Laerm;36239;48.132;-1.210;2024-01-10T04:44:28;38.63;34.31;42.65;;
50333;Laerm;36239;48.132;-1.210;2024-01-10T04:46:54;47.68;34.31;67.09;;
50333;Laerm;36239;48.132;-1.210;2024-01-10T04:49:20;56.24;34.69;84.71;;
50333;Laerm;36239;48.132;-1.210;2024-01-10T04:51:46;48.01;35.36;72.76;;
50333;Laerm;36239;48.132;-1.210;2024-01-10T04:54:12;48.69;34.31;66.73;;
50333;Laerm;36239;48.132;-1.210;2024-01-10T04:56:38;44.16;34.31;57.55;;
50333;Laerm;36239;48.132;-1.210;2024-01-10T04:59:04;38.80;34.31;50.29;;
50333;Laerm;36239;48.132;-1.210;2024-01-10T05:01:31;38.24;32.93;46.28;;
50333;Laerm;36239;48.132;-1.210;2024-01-10T05:03:57;38.64;34.31;45.23;;
50333;Laerm;36239;48.132;-1.210;2024-01-10T05:06:23;42.87;33.44;66.85;;
50333;Laerm;36239;48.132;-1.210;2024-01-10T05:08:49;53.08;33.90;80.49;;
50333;Laerm;36239;48.132;-1.210;2024-01-10T05:11:15;43.04;34.31;61.86;;
50333;Laerm;36239;48.132;-1.210;2024-01-10T05:13:42;38.65;34.31;46.84;;
50333;Laerm;36239;48.132;-1.210;2024-01-10T05:16:08;38.52;33.44;50.04;;
50333;Laerm;36239;48.132;-1.210;2024-01-10T05:18:34;39.10;34.31;59.94;;
50333;Laerm;36239;48.132;-1.210;2024-01-10T05:21:00;38.46;34.31;42.82;;
50333;Laerm;36239;48.132;-1.210;2024-01-10T05:23:26;43.07;33.90;65.23;;
50333;Laerm;36239;48.132;-1.210;2024-01-10T05:25:53;40.50;32.35;58.29;;
50333;Laerm;36239;48.132;-1.210;2024-01-10T05:28:19;41.98;37.32;66.67;;
50333;Laerm;36239;48.132;-1.210;2024-01-10T05:30:45;40.10;36.45;44.90;;
50333;Laerm;36239;48.132;-1.210;2024-01-10T05:33:11;40.21;36.20;50.51;;
50333;Laerm;36239;48.132;-1.210;2024-01-10T05:35:40;40.20;36.20;53.47;;
50333;Laerm;36239;48.132;-1.210;2024-01-10T05:38:06;40.93;36.91;57.69;;
50333;Laerm;36239;48.132;-1.210;2024-01-10T05:40:32;41.91;36.20;63.87;;
50333;Laerm;36239;48.132;-1.210;2024-01-10T05:42:58;41.36;35.66;55.98;;
50333;Laerm;36239;48.132;-1.210;2024-01-10T05:45:27;39.36;35.04;62.02;;
50333;Laerm;36239;48.132;-1.210;2024-01-10T05:47:54;39.29;35.86;44.35;;
50333;Laerm;36239;48.132;-1.210;2024-01-10T05:50:20;39.48;35.36;51.06;;
50333;Laerm;36239;48.132;-1.210;2024-01-10T05:52:46;39.35;34.69;43.77;;
50333;Laerm;36239;48.132;-1.210;2024-01-10T05:55:12;39.57;35.36;50.60;;
50333;Laerm;36239;48.132;-1.210;2024-01-10T05:57:39;39.59;34.69;48.39;;
50333;Laerm;36239;48.132;-1.210;2024-01-10T06:00:05;39.19;34.69;51.80;;
50333;Laerm;36239;48.132;-1.210;2024-01-10T06:02:36;41.16;35.04;64.99;;
50333;Laerm;36239;48.132;-1.210;2024-01-10T06:05:08;39.46;35.36;46.48;;
50333;Laerm;36239;48.132;-1.210;2024-01-10T06:07:35;47.33;34.69;73.23;;
50333;Laerm;36239;48.132;-1.210;2024-01-10T06:10:01;39.52;35.04;50.85;;
50333;Laerm;36239;48.132;-1.210;2024-01-10T06:12:27;40.17;36.20;51.81;;
50333;Laerm;36239;48.132;-1.210;2024-01-10T06:14:54;39.40;35.36;43.94;;
50333;Laerm;36239;48.132;-1.210;2024-01-10T06:17:20;42.83;34.69;63.43;;
50333;Laerm;36239;48.132;-1.210;2024-01-10T06:19:46;40.05;35.94;45.23;;
50333;Laerm;36239;48.132;-1.210;2024-01-10T06:22:12;47.26;36.20;74.94;;
50333;Laerm;36239;48.132;-1.210;2024-01-10T06:24:38;55.23;35.66;86.33;;
50333;Laerm;36239;48.132;-1.210;2024-01-10T06:27:04;48.42;35.94;73.34;;
50333;Laerm;36239;48.132;-1.210;2024-01-10T06:29:31;40.74;35.66;64.25;;
50333;Laerm;36239;48.132;-1.210;2024-01-10T06:31:58;39.58;35.04;48.67;;
50333;Laerm;36239;48.132;-1.210;2024-01-10T06:34:24;45.26;35.66;68.24;;
50333;Laerm;36239;48.132;-1.210;2024-01-10T06:36:50;44.44;36.45;69.02;;
50333;Laerm;36239;48.132;-1.210;2024-01-10T06:39:16;39.83;36.69;47.59;;
50333;Laerm;36239;48.132;-1.210;2024-01-10T06:41:48;40.44;36.69;52.47;;
50333;Laerm;36239;48.132;-1.210;2024-01-10T06:44:14;44.52;37.12;66.60;;
50333;Laerm;36239;48.132;-1.210;2024-01-10T06:46:43;47.27;38.81;71.74;;
50333;Laerm;36239;48.132;-1.210;2024-01-10T06:49:10;52.90;38.02;73.17;;
50333;Laerm;36239;48.132;-1.210;2024-01-10T06:51:36;40.37;36.69;44.83;;
50333;Laerm;36239;48.132;-1.210;2024-01-10T06:54:02;41.09;37.32;51.91;;
50333;Laerm;36239;48.132;-1.210;2024-01-10T06:56:31;41.39;36.91;53.79;;
50333;Laerm;36239;48.132;-1.210;2024-01-10T06:59:01;42.67;38.05;62.57;;
50333;Laerm;36239;48.132;-1.210;2024-01-10T07:01:27;44.39;37.88;68.10;;
50333;Laerm;36239;48.132;-1.210;2024-01-10T07:03:53;47.75;38.67;70.34;;
50333;Laerm;36239;48.132;-1.210;2024-01-10T07:06:22;41.65;37.12;60.34;;
50333;Laerm;36239;48.132;-1.210;2024-01-10T07:08:49;43.29;37.70;59.41;;
50333;Laerm;36239;48.132;-1.210;2024-01-10T07:11:16;45.41;36.69;72.00;;
50333;Laerm;36239;48.132;-1.210;2024-01-10T07:13:42;48.86;37.32;80.44;;
50333;Laerm;36239;48.132;-1.210;2024-01-10T07:16:08;44.42;37.32;63.42;;
50333;Laerm;36239;48.132;-1.210;2024-01-10T07:18:34;46.63;39.08;69.34;;
50333;Laerm;36239;48.132;-1.210;2024-01-10T07:21:00;41.01;36.34;57.08;;
50333;Laerm;36239;48.132;-1.210;2024-01-10T07:23:26;40.92;36.45;55.19;;
50333;Laerm;36239;48.132;-1.210;2024-01-10T07:25:52;42.50;37.32;64.00;;
50333;Laerm;36239;48.132;-1.210;2024-01-10T07:28:19;47.27;36.69;72.01;;
50333;Laerm;36239;48.132;-1.210;2024-01-10T07:30:45;41.77;36.45;57.10;;
50333;Laerm;36239;48.132;-1.210;2024-01-10T07:33:12;44.01;35.66;65.73;;
50333;Laerm;36239;48.132;-1.210;2024-01-10T07:35:38;40.42;37.12;43.72;;
50333;Laerm;36239;48.132;-1.210;2024-01-10T07:38:04;40.13;35.66;43.90;;
50333;Laerm;36239;48.132;-1.210;2024-01-10T07:40:33;39.96;35.66;48.18;;
50333;Laerm;36239;48.132;-1.210;2024-01-10T07:42:59;40.96;36.45;69.33;;
50333;Laerm;36239;48.132;-1.210;2024-01-10T07:45:25;40.86;36.20;56.03;;
50333;Laerm;36239;48.132;-1.210;2024-01-10T07:47:51;40.19;36.91;48.81;;
50333;Laerm;36239;48.132;-1.210;2024-01-10T07:50:17;45.65;36.69;65.77;;
50333;Laerm;36239;48.132;-1.210;2024-01-10T07:52:45;40.27;35.04;53.34;;
50333;Laerm;36239;48.132;-1.210;2024-01-10T07:55:12;40.20;36.91;53.25;;
50333;Laerm;36239;48.132;-1.210;2024-01-10T07:57:38;40.77;37.17;55.67;;
50333;Laerm;36239;48.132;-1.210;2024-01-10T08:00:07;40.77;36.91;52.33;;
50333;Laerm;36239;48.132;-1.210;2024-01-10T08:02:39;41.19;37.52;45.93;;
50333;Laerm;36239;48.132;-1.210;2024-01-10T08:05:06;42.73;37.88;62.75;;
50333;Laerm;36239;48.132;-1.210;2024-01-10T08:07:34;41.98;37.70;52.41;;
50333;Laerm;36239;48.132;-1.210;2024-01-10T08:10:04;41.75;37.88;51.05;;
50333;Laerm;36239;48.132;-1.210;2024-01-10T08:12:30;41.02;36.91;48.84;;
50333;Laerm;36239;48.132;-1.210;2024-01-10T08:14:56;41.76;36.69;59.50;;
50333;Laerm;36239;48.132;-1.210;2024-01-10T08:17:22;41.32;38.52;57.55;;
50333;Laerm;36239;48.132;-1.210;2024-01-10T08:19:49;41.89;37.52;60.14;;
50333;Laerm;36239;48.132;-1.210;2024-01-10T08:22:15;41.80;38.05;53.08;;
50333;Laerm;36239;48.132;-1.210;2024-01-10T08:24:41;50.54;37.17;80.45;;
50333;Laerm;36239;48.132;-1.210;2024-01-10T08:27:07;44.81;38.05;70.29;;
50333;Laerm;36239;48.132;-1.210;2024-01-10T08:29:33;41.71;36.45;61.11;;
50333;Laerm;36239;48.132;-1.210;2024-01-10T08:31:59;41.01;36.45;57.42;;
50333;Laerm;36239;48.132;-1.210;2024-01-10T08:34:25;41.58;35.94;59.01;;
50333;Laerm;36239;48.132;-1.210;2024-01-10T08:36:52;41.05;36.45;50.44;;
50333;Laerm;36239;48.132;-1.210;2024-01-10T08:39:18;53.25;38.21;77.03;;
50333;Laerm;36239;48.132;-1.210;2024-01-10T08:41:44;42.67;37.88;65.37;;
50333;Laerm;36239;48.132;-1.210;2024-01-10T08:44:10;46.83;37.52;73.62;;
50333;Laerm;36239;48.132;-1.210;2024-01-10T08:46:37;48.84;37.70;70.68;;
50333;Laerm;36239;48.132;-1.210;2024-01-10T08:49:03;43.00;38.05;64.41;;
50333;Laerm;36239;48.132;-1.210;2024-01-10T08:51:29;41.53;37.70;57.71;;
50333;Laerm;36239;48.132;-1.210;2024-01-10T08:53:56;49.83;37.88;75.81;;
50333;Laerm;36239;48.132;-1.210;2024-01-10T08:56:22;41.13;35.36;53.26;;
50333;Laerm;36239;48.132;-1.210;2024-01-10T08:58:49;42.33;37.32;66.87;;
50333;Laerm;36239;48.132;-1.210;2024-01-10T09:01:15;44.33;37.12;67.10;;
50333;Laerm;36239;48.132;-1.210;2024-01-10T09:03:41;41.39;36.91;63.27;;
50333;Laerm;36239;48.132;-1.210;2024-01-10T09:06:07;51.97;36.20;75.43;;
50333;Laerm;36239;48.132;-1.210;2024-01-10T09:08:34;43.58;36.45;63.40;;
50333;Laerm;36239;48.132;-1.210;2024-01-10T09:11:00;45.35;37.88;64.81;;
50333;Laerm;36239;48.132;-1.210;2024-01-10T09:13:26;45.85;36.91;67.24;;
50333;Laerm;36239;48.132;-1.210;2024-01-10T09:15:52;40.77;37.12;50.38;;
50333;Laerm;36239;48.132;-1.210;2024-01-10T09:18:18;44.72;36.20;70.88;;
50333;Laerm;36239;48.132;-1.210;2024-01-10T09:20:44;43.33;37.88;72.24;;
50333;Laerm;36239;48.132;-1.210;2024-01-10T09:23:10;40.49;37.12;50.49;;
50333;Laerm;36239;48.132;-1.210;2024-01-10T09:25:36;42.99;37.52;62.93;;
50333;Laerm;36239;48.132;-1.210;2024-01-10T09:28:05;44.02;39.34;63.34;;
50333;Laerm;36239;48.132;-1.210;2024-01-10T09:30:31;42.67;38.67;46.89;;
50333;Laerm;36239;48.132;-1.210;2024-01-10T09:32:57;43.85;38.81;67.11;;
50333;Laerm;36239;48.132;-1.210;2024-01-10T09:35:24;42.46;37.52;56.19;;
50333;Laerm;36239;48.132;-1.210;2024-01-10T09:37:50;40.52;37.52;52.76;;
50333;Laerm;36239;48.132;-1.210;2024-01-10T09:40:16;41.25;37.32;57.44;;
50333;Laerm;36239;48.132;-1.210;2024-01-10T09:42:43;41.04;37.52;48.74;;
50333;Laerm;36239;48.132;-1.210;2024-01-10T09:45:10;43.01;36.69;67.04;;
50333;Laerm;36239;48.132;-1.210;2024-01-10T09:47:39;44.25;36.20;67.22;;
50333;Laerm;36239;48.132;-1.210;2024-01-10T09:50:05;40.89;36.91;53.83;;
50333;Laerm;36239;48.132;-1.210;2024-01-10T09:52:36;46.26;37.12;75.95;;
50333;Laerm;36239;48.132;-1.210;2024-01-10T09:55:05;42.38;35.66;58.95;;
50333;Laerm;36239;48.132;-1.210;2024-01-10T09:57:31;44.86;36.91;66.90;;
50333;Laerm;36239;48.132;-1.210;2024-01-10T09:59:57;51.69;37.52;78.70;;
50333;Laerm;36239;48.132;-1.210;2024-01-10T10:02:23;43.00;36.45;72.44;;
50333;Laerm;36239;48.132;-1.210;2024-01-10T10:05:14;41.73;38.37;51.15;;
50333;Laerm;36239;48.132;-1.210;2024-01-10T10:07:46;41.12;37.32;47.81;;
50333;Laerm;36239;48.132;-1.210;2024-01-10T10:10:12;41.02;36.45;56.51;;
50333;Laerm;36239;48.132;-1.210;2024-01-10T10:12:43;55.67;37.52;77.78;;
50333;Laerm;36239;48.132;-1.210;2024-01-10T10:15:10;59.75;37.52;84.88;;
50333;Laerm;36239;48.132;-1.210;2024-01-10T10:17:37;46.74;36.20;71.65;;
50333;Laerm;36239;48.132;-1.210;2024-01-10T10:20:03;46.46;36.91;69.27;;
50333;Laerm;36239;48.132;-1.210;2024-01-10T10:22:30;43.35;37.32;65.34;;
50333;Laerm;36239;48.132;-1.210;2024-01-10T10:24:56;40.98;36.45;58.99;;
50333;Laerm;36239;48.132;-1.210;2024-01-10T10:27:22;48.49;37.12;68.87;;
50333;Laerm;36239;48.132;-1.210;2024-01-10T10:29:48;41.66;36.20;64.01;;
50333;Laerm;36239;48.132;-1.210;2024-01-10T10:32:14;41.72;37.32;64.63;;
50333;Laerm;36239;48.132;-1.210;2024-01-10T10:34:41;44.74;36.45;68.19;;
50333;Laerm;36239;48.132;-1.210;2024-01-10T10:37:07;49.42;36.91;73.68;;
50333;Laerm;36239;48.132;-1.210;2024-01-10T10:39:33;40.90;35.36;55.11;;
50333;Laerm;36239;48.132;-1.210;2024-01-10T10:41:59;49.87;35.36;74.62;;
50333;Laerm;36239;48.132;-1.210;2024-01-10T10:44:26;44.22;37.12;65.10;;
50333;Laerm;36239;48.132;-1.210;2024-01-10T10:46:54;47.59;36.45;72.06;;
50333;Laerm;36239;48.132;-1.210;2024-01-10T10:49:27;40.26;34.69;51.18;;
50333;Laerm;36239;48.132;-1.210;2024-01-10T10:51:55;47.23;37.70;73.36;;
50333;Laerm;36239;48.132;-1.210;2024-01-10T10:54:23;52.70;38.21;78.87;;
50333;Laerm;36239;48.132;-1.210;2024-01-10T10:56:51;44.80;35.04;61.00;;
50333;Laerm;36239;48.132;-1.210;2024-01-10T10:59:17;51.63;34.31;72.84;;
50333;Laerm;36239;48.132;-1.210;2024-01-10T11:01:45;46.89;37.32;76.24;;
50333;Laerm;36239;48.132;-1.210;2024-01-10T11:04:12;41.35;36.69;54.89;;
50333;Laerm;36239;48.132;-1.210;2024-01-10T11:06:40;43.48;38.05;64.72;;
50333;Laerm;36239;48.132;-1.210;2024-01-10T11:09:06;57.73;37.32;82.35;;
50333;Laerm;36239;48.132;-1.210;2024-01-10T11:11:51;49.73;38.37;75.72;;
50333;Laerm;36239;48.132;-1.210;2024-01-10T11:17:10;50.54;37.32;78.01;;
50333;Laerm;36239;48.132;-1.210;2024-01-10T11:22:42;42.15;38.52;55.06;;
50333;Laerm;36239;48.132;-1.210;2024-01-10T11:25:09;46.76;38.05;69.14;;
50333;Laerm;36239;48.132;-1.210;2024-01-10T11:27:36;45.88;37.70;69.19;;
50333;Laerm;36239;48.132;-1.210;2024-01-10T11:30:02;43.29;37.88;61.42;;
50333;Laerm;36239;48.132;-1.210;2024-01-10T11:32:31;42.47;37.52;67.11;;
50333;Laerm;36239;48.132;-1.210;2024-01-10T11:34:58;41.44;38.05;51.06;;
50333;Laerm;36239;48.132;-1.210;2024-01-10T11:37:43;45.04;35.94;65.55;;
50333;Laerm;36239;48.132;-1.210;2024-01-10T11:40:09;51.80;38.21;76.86;;
50333;Laerm;36239;48.132;-1.210;2024-01-10T11:42:42;47.97;38.37;64.09;;
50333;Laerm;36239;48.132;-1.210;2024-01-10T11:45:08;53.63;38.67;78.90;;
50333;Laerm;36239;48.132;-1.210;2024-01-10T11:47:34;41.43;37.32;59.64;;
50333;Laerm;36239;48.132;-1.210;2024-01-10T11:50:01;46.90;37.70;72.60;;
50333;Laerm;36239;48.132;-1.210;2024-01-10T11:52:34;43.77;36.20;67.49;;
50333;Laerm;36239;48.132;-1.210;2024-01-10T11:55:00;47.54;35.94;74.42;;
50333;Laerm;36239;48.132;-1.210;2024-01-10T11:57:27;40.31;36.20;50.47;;
50333;Laerm;36239;48.132;-1.210;2024-01-10T11:59:54;40.50;35.94;56.29;;
50333;Laerm;36239;48.132;-1.210;2024-01-10T12:02:21;51.26;36.20;75.19;;
50333;Laerm;36239;48.132;-1.210;2024-01-10T12:04:47;46.67;35.66;71.80;;
50333;Laerm;36239;48.132;-1.210;2024-01-10T12:07:14;41.11;35.94;50.21;;
50333;Laerm;36239;48.132;-1.210;2024-01-10T12:09:40;44.85;37.12;67.88;;
50333;Laerm;36239;48.132;-1.210;2024-01-10T12:12:07;42.72;37.12;66.26;;
50333;Laerm;36239;48.132;-1.210;2024-01-10T12:14:33;47.60;37.52;67.78;;
50333;Laerm;36239;48.132;-1.210;2024-01-10T12:17:00;44.92;37.12;64.57;;
50333;Laerm;36239;48.132;-1.210;2024-01-10T12:19:27;51.22;38.52;78.29;;
50333;Laerm;36239;48.132;-1.210;2024-01-10T12:21:53;48.89;38.95;75.69;;
50333;Laerm;36239;48.132;-1.210;2024-01-10T12:24:19;47.21;39.21;69.97;;
50333;Laerm;36239;48.132;-1.210;2024-01-10T12:26:46;52.21;37.88;77.19;;
50333;Laerm;36239;48.132;-1.210;2024-01-10T12:29:12;55.04;37.52;80.89;;
50333;Laerm;36239;48.132;-1.210;2024-01-10T12:31:39;60.16;36.91;83.02;;
50333;Laerm;36239;48.132;-1.210;2024-01-10T12:34:06;45.75;38.21;67.41;;
50333;Laerm;36239;48.132;-1.210;2024-01-10T12:36:32;41.96;38.05;52.26;;
50333;Laerm;36239;48.132;-1.210;2024-01-10T12:38:58;43.74;37.32;63.70;;
50333;Laerm;36239;48.132;-1.210;2024-01-10T12:41:24;45.51;37.52;69.35;;
50333;Laerm;36239;48.132;-1.210;2024-01-10T12:43:52;49.20;36.91;76.36;;
50333;Laerm;36239;48.132;-1.210;2024-01-10T12:46:18;43.82;37.70;67.02;;
50333;Laerm;36239;48.132;-1.210;2024-01-10T12:48:44;46.11;37.52;73.64;;
50333;Laerm;36239;48.132;-1.210;2024-01-10T12:51:11;46.27;37.88;68.17;;
50333;Laerm;36239;48.132;-1.210;2024-01-10T12:53:38;42.04;36.91;60.01;;
50333;Laerm;36239;48.132;-1.210;2024-01-10T12:56:05;42.04;37.88;58.84;;
50333;Laerm;36239;48.132;-1.210;2024-01-10T12:58:32;41.06;37.70;48.10;;
50333;Laerm;36239;48.132;-1.210;2024-01-10T13:00:58;43.73;37.32;72.88;;
50333;Laerm;36239;48.132;-1.210;2024-01-10T13:03:24;40.94;36.91;54.92;;
50333;Laerm;36239;48.132;-1.210;2024-01-10T13:05:50;40.95;35.94;62.95;;
50333;Laerm;36239;48.132;-1.210;2024-01-10T13:08:17;40.76;36.91;59.27;;
50333;Laerm;36239;48.132;-1.210;2024-01-10T13:10:45;40.99;37.52;55.85;;
50333;Laerm;36239;48.132;-1.210;2024-01-10T13:13:11;40.95;35.66;59.11;;
50333;Laerm;36239;48.132;-1.210;2024-01-10T13:15:38;42.50;36.45;61.19;;
50333;Laerm;36239;48.132;-1.210;2024-01-10T13:18:04;45.04;37.52;69.53;;
50333;Laerm;36239;48.132;-1.210;2024-01-10T13:20:30;46.29;42.59;66.78;;
50333;Laerm;36239;48.132;-1.210;2024-01-10T13:22:56;49.21;37.88;68.70;;
50333;Laerm;36239;48.132;-1.210;2024-01-10T13:25:22;52.51;37.12;77.69;;
50333;Laerm;36239;48.132;-1.210;2024-01-10T13:27:49;44.22;37.70;64.75;;
50333;Laerm;36239;48.132;-1.210;2024-01-10T13:30:16;50.11;37.32;75.12;;
50333;Laerm;36239;48.132;-1.210;2024-01-10T13:32:46;53.46;35.36;78.94;;
50333;Laerm;36239;48.132;-1.210;2024-01-10T13:35:15;46.56;37.52;72.73;;